RYR2JF LIRP-EGSS
Flight info
| Callsign | RYR2JF |
|---|---|
| Flight time | N/A |
| Altitude | 38000 |
| Route | SPEZI DCT LUKIM DCT AOSTA DCT ORSUD DCT MOLUS DCT IBODI DCT GOTED DCT TRO DCT CLM DCT KOPOR DCT SOSUN DCT SUBIP UM733 BANVA |
| Aircraft | B738/M-SDFGIJ1LRWYZ/SB1 |
Departure
| Time | N/A |
|---|---|
| Airport | Pisa International Airport (LIRP) |
Arrival
| Time | 2026-05-03 21:23 |
|---|---|
| Airport | London Stansted Airport (EGSS) |
| Time | Latitude | Longitude | Altitude | Speed | Heading |
|---|---|---|---|---|---|
| 2026-05-03 20:15 | 47.13354 | 5.62824 | 38010 ft | 441 kts | 313° |
| 2026-05-03 20:15 | 47.17906 | 5.56764 | 38011 ft | 441 kts | 313° |
| 2026-05-03 20:16 | 47.22460 | 5.50688 | 38014 ft | 441 kts | 313° |
| 2026-05-03 20:16 | 47.27005 | 5.44608 | 38019 ft | 442 kts | 313° |
| 2026-05-03 20:17 | 47.31549 | 5.38516 | 38033 ft | 442 kts | 313° |
| 2026-05-03 20:17 | 47.36073 | 5.32435 | 38020 ft | 442 kts | 313° |
| 2026-05-03 20:18 | 47.40617 | 5.26312 | 38010 ft | 442 kts | 313° |
| 2026-05-03 20:18 | 47.45155 | 5.20183 | 38013 ft | 442 kts | 313° |
| 2026-05-03 20:19 | 47.49693 | 5.14038 | 38020 ft | 442 kts | 312° |
| 2026-05-03 20:19 | 47.54230 | 5.07880 | 38003 ft | 442 kts | 312° |
| 2026-05-03 20:20 | 47.58762 | 5.01714 | 38020 ft | 442 kts | 312° |
| 2026-05-03 20:20 | 47.63291 | 4.95537 | 38002 ft | 443 kts | 312° |
| 2026-05-03 20:21 | 47.67828 | 4.89331 | 37989 ft | 443 kts | 312° |
| 2026-05-03 20:21 | 47.72330 | 4.83161 | 37997 ft | 443 kts | 311° |
| 2026-05-03 20:22 | 47.76863 | 4.76932 | 37993 ft | 444 kts | 311° |
| 2026-05-03 20:22 | 47.81395 | 4.70689 | 37983 ft | 444 kts | 311° |
| 2026-05-03 20:23 | 47.85926 | 4.64432 | 38001 ft | 444 kts | 311° |
| 2026-05-03 20:23 | 47.90456 | 4.58160 | 37987 ft | 445 kts | 311° |
| 2026-05-03 20:24 | 47.94971 | 4.51893 | 37992 ft | 446 kts | 311° |
| 2026-05-03 20:24 | 47.99545 | 4.45528 | 37977 ft | 447 kts | 311° |
| 2026-05-03 20:25 | 48.04066 | 4.39222 | 37982 ft | 447 kts | 311° |
| 2026-05-03 20:25 | 48.08613 | 4.32864 | 37981 ft | 447 kts | 311° |
| 2026-05-03 20:26 | 48.13160 | 4.26489 | 37984 ft | 448 kts | 311° |
| 2026-05-03 20:26 | 48.17708 | 4.20095 | 37982 ft | 448 kts | 311° |
| 2026-05-03 20:27 | 48.22226 | 4.13729 | 37971 ft | 449 kts | 311° |
| 2026-05-03 20:27 | 48.26778 | 4.07299 | 37977 ft | 449 kts | 311° |
| 2026-05-03 20:28 | 48.31320 | 4.00865 | 37971 ft | 449 kts | 311° |
| 2026-05-03 20:28 | 48.35856 | 3.94423 | 37968 ft | 449 kts | 311° |
| 2026-05-03 20:29 | 48.40392 | 3.87966 | 37969 ft | 449 kts | 311° |
| 2026-05-03 20:29 | 48.44923 | 3.81498 | 37969 ft | 449 kts | 311° |
| 2026-05-03 20:30 | 48.49453 | 3.75015 | 37970 ft | 449 kts | 311° |
| 2026-05-03 20:30 | 48.53950 | 3.68563 | 37969 ft | 448 kts | 311° |
| 2026-05-03 20:31 | 48.58465 | 3.62068 | 37978 ft | 448 kts | 311° |
| 2026-05-03 20:31 | 48.62980 | 3.55555 | 37975 ft | 448 kts | 311° |
| 2026-05-03 20:32 | 48.67492 | 3.49031 | 37966 ft | 449 kts | 311° |
| 2026-05-03 20:32 | 48.72010 | 3.42479 | 37966 ft | 449 kts | 311° |
| 2026-05-03 20:33 | 48.76521 | 3.35921 | 37961 ft | 449 kts | 311° |
| 2026-05-03 20:33 | 48.81026 | 3.29354 | 37954 ft | 449 kts | 311° |
| 2026-05-03 20:34 | 48.85535 | 3.22766 | 37953 ft | 450 kts | 311° |
| 2026-05-03 20:34 | 48.90010 | 3.16210 | 37949 ft | 450 kts | 311° |
| 2026-05-03 20:35 | 48.94515 | 3.09591 | 37951 ft | 450 kts | 311° |
| 2026-05-03 20:35 | 48.99016 | 3.02962 | 37955 ft | 450 kts | 311° |
| 2026-05-03 20:36 | 49.03512 | 2.96323 | 37947 ft | 449 kts | 311° |
| 2026-05-03 20:36 | 49.07999 | 2.89681 | 37944 ft | 449 kts | 311° |
| 2026-05-03 20:37 | 49.12482 | 2.83025 | 37938 ft | 449 kts | 311° |
| 2026-05-03 20:37 | 49.16924 | 2.76412 | 37951 ft | 449 kts | 311° |
| 2026-05-03 20:38 | 49.21395 | 2.69738 | 37955 ft | 449 kts | 310° |
| 2026-05-03 20:38 | 49.25863 | 2.63053 | 37945 ft | 449 kts | 310° |
| 2026-05-03 20:39 | 49.30326 | 2.56354 | 37943 ft | 449 kts | 310° |
| 2026-05-03 20:39 | 49.34791 | 2.49636 | 37935 ft | 450 kts | 310° |
| 2026-05-03 20:40 | 49.39267 | 2.42883 | 37942 ft | 451 kts | 310° |
| 2026-05-03 20:40 | 49.43709 | 2.36164 | 37939 ft | 452 kts | 310° |
| 2026-05-03 20:41 | 49.48184 | 2.29375 | 37941 ft | 452 kts | 310° |
| 2026-05-03 20:41 | 49.52665 | 2.22560 | 37965 ft | 453 kts | 311° |
| 2026-05-03 20:42 | 49.57153 | 2.15715 | 37950 ft | 454 kts | 311° |
| 2026-05-03 20:42 | 49.60914 | 2.09965 | 37938 ft | 455 kts | 311° |
| 2026-05-03 20:43 | 49.65388 | 2.03107 | 37934 ft | 456 kts | 311° |
| 2026-05-03 20:43 | 49.69885 | 1.96195 | 37937 ft | 456 kts | 311° |
| 2026-05-03 20:44 | 49.74383 | 1.89261 | 37946 ft | 456 kts | 311° |
| 2026-05-03 20:44 | 49.78882 | 1.82308 | 37935 ft | 456 kts | 311° |
| 2026-05-03 20:45 | 49.83375 | 1.75343 | 37940 ft | 457 kts | 311° |
| 2026-05-03 20:45 | 49.87838 | 1.68405 | 37933 ft | 457 kts | 311° |
| 2026-05-03 20:46 | 49.92326 | 1.61409 | 37934 ft | 457 kts | 311° |
| 2026-05-03 20:46 | 49.96812 | 1.54400 | 37940 ft | 457 kts | 311° |
| 2026-05-03 20:47 | 50.01427 | 1.47555 | 37931 ft | 459 kts | 315° |
| 2026-05-03 20:47 | 50.06280 | 1.41045 | 37934 ft | 460 kts | 316° |
| 2026-05-03 20:48 | 50.11104 | 1.34593 | 37944 ft | 460 kts | 315° |
| 2026-05-03 20:48 | 50.13519 | 1.31322 | 37828 ft | 462 kts | 315° |
| 2026-05-03 20:48 | 50.15953 | 1.28003 | 37297 ft | 464 kts | 315° |
| 2026-05-03 20:48 | 50.18373 | 1.24694 | 36735 ft | 460 kts | 314° |
| 2026-05-03 20:49 | 50.20767 | 1.21410 | 36180 ft | 458 kts | 314° |
| 2026-05-03 20:49 | 50.23155 | 1.18129 | 35585 ft | 457 kts | 313° |
| 2026-05-03 20:49 | 50.25539 | 1.14848 | 34958 ft | 457 kts | 313° |
| 2026-05-03 20:49 | 50.27913 | 1.11578 | 34491 ft | 453 kts | 313° |
| 2026-05-03 20:50 | 50.30267 | 1.08333 | 34040 ft | 449 kts | 312° |
| 2026-05-03 20:50 | 50.32601 | 1.05112 | 33548 ft | 445 kts | 311° |
| 2026-05-03 20:50 | 50.34909 | 1.01921 | 33072 ft | 440 kts | 311° |
| 2026-05-03 20:50 | 50.37161 | 0.98801 | 32631 ft | 435 kts | 311° |
| 2026-05-03 20:51 | 50.39416 | 0.95673 | 32207 ft | 430 kts | 311° |
| 2026-05-03 20:51 | 50.41645 | 0.92578 | 31788 ft | 425 kts | 311° |
| 2026-05-03 20:51 | 50.43851 | 0.89512 | 31402 ft | 421 kts | 313° |
| 2026-05-03 20:51 | 50.46049 | 0.86496 | 30983 ft | 419 kts | 314° |
| 2026-05-03 20:52 | 50.48275 | 0.83552 | 30576 ft | 416 kts | 314° |
| 2026-05-03 20:52 | 50.50489 | 0.80650 | 30174 ft | 412 kts | 314° |
| 2026-05-03 20:52 | 50.52674 | 0.77768 | 29726 ft | 409 kts | 314° |
| 2026-05-03 20:52 | 50.54838 | 0.74897 | 29269 ft | 404 kts | 314° |
| 2026-05-03 20:53 | 50.56947 | 0.72088 | 28841 ft | 400 kts | 314° |
| 2026-05-03 20:53 | 50.59082 | 0.69241 | 28432 ft | 395 kts | 314° |
| 2026-05-03 20:53 | 50.61138 | 0.66497 | 28030 ft | 390 kts | 314° |
| 2026-05-03 20:53 | 50.63205 | 0.63731 | 27621 ft | 388 kts | 314° |
| 2026-05-03 20:54 | 50.65253 | 0.60988 | 27231 ft | 384 kts | 314° |
| 2026-05-03 20:54 | 50.69356 | 0.55475 | 26437 ft | 397 kts | 315° |
| 2026-05-03 20:54 | 50.71473 | 0.52626 | 26017 ft | 400 kts | 315° |
| 2026-05-03 20:55 | 50.73581 | 0.49795 | 25591 ft | 396 kts | 315° |
| 2026-05-03 20:55 | 50.75668 | 0.46990 | 25179 ft | 391 kts | 315° |
| 2026-05-03 20:55 | 50.77731 | 0.44212 | 24790 ft | 387 kts | 315° |
| 2026-05-03 20:55 | 50.79767 | 0.41463 | 24383 ft | 383 kts | 315° |
| 2026-05-03 20:56 | 50.81764 | 0.38765 | 23992 ft | 380 kts | 315° |
| 2026-05-03 20:56 | 50.83766 | 0.36057 | 23599 ft | 376 kts | 315° |
| 2026-05-03 20:56 | 50.85744 | 0.33377 | 23161 ft | 373 kts | 315° |
| 2026-05-03 20:56 | 50.87704 | 0.30719 | 22735 ft | 369 kts | 315° |
| 2026-05-03 20:57 | 50.89649 | 0.28078 | 22341 ft | 365 kts | 315° |
| 2026-05-03 20:57 | 50.91571 | 0.25464 | 21953 ft | 361 kts | 315° |
| 2026-05-03 20:57 | 50.93437 | 0.22924 | 21581 ft | 357 kts | 315° |
| 2026-05-03 20:57 | 50.95314 | 0.20365 | 21199 ft | 353 kts | 315° |
| 2026-05-03 20:58 | 50.97177 | 0.17824 | 20829 ft | 350 kts | 315° |
| 2026-05-03 20:58 | 50.99016 | 0.15313 | 20483 ft | 347 kts | 315° |
| 2026-05-03 20:58 | 51.00838 | 0.12823 | 20239 ft | 349 kts | 315° |
| 2026-05-03 20:58 | 51.02776 | 0.10280 | 20051 ft | 372 kts | 319° |
| 2026-05-03 20:59 | 51.04908 | 0.07843 | 19988 ft | 381 kts | 322° |
| 2026-05-03 20:59 | 51.07100 | 0.05469 | 19953 ft | 381 kts | 322° |
| 2026-05-03 20:59 | 51.09282 | 0.03132 | 19836 ft | 373 kts | 322° |
| 2026-05-03 20:59 | 51.11422 | 0.00824 | 19424 ft | 371 kts | 322° |
| 2026-05-03 21:00 | 51.13534 | -0.01478 | 19174 ft | 365 kts | 322° |
| 2026-05-03 21:00 | 51.14922 | -0.03002 | 19014 ft | 367 kts | 322° |
| 2026-05-03 21:00 | 51.17758 | -0.06141 | 18704 ft | 374 kts | 322° |
| 2026-05-03 21:00 | 51.19892 | -0.08513 | 18466 ft | 373 kts | 322° |
| 2026-05-03 21:01 | 51.21991 | -0.10848 | 18225 ft | 371 kts | 322° |
| 2026-05-03 21:02 | 51.32606 | -0.22711 | 17921 ft | 369 kts | 322° |
| 2026-05-03 21:02 | 51.34708 | -0.25069 | 17913 ft | 369 kts | 322° |
| 2026-05-03 21:02 | 51.36817 | -0.27436 | 17913 ft | 369 kts | 322° |
| 2026-05-03 21:03 | 51.38921 | -0.29799 | 17914 ft | 370 kts | 322° |
| 2026-05-03 21:03 | 51.41069 | -0.32064 | 17903 ft | 372 kts | 331° |
| 2026-05-03 21:03 | 51.43540 | -0.33193 | 17684 ft | 371 kts | 354° |
| 2026-05-03 21:03 | 51.46106 | -0.32815 | 17214 ft | 371 kts | 15° |
| 2026-05-03 21:04 | 51.48492 | -0.31254 | 16621 ft | 372 kts | 25° |
| 2026-05-03 21:04 | 51.50821 | -0.29446 | 16048 ft | 371 kts | 26° |
| 2026-05-03 21:04 | 51.53132 | -0.27613 | 15553 ft | 369 kts | 26° |
| 2026-05-03 21:04 | 51.55430 | -0.25797 | 15093 ft | 366 kts | 26° |
| 2026-05-03 21:05 | 51.57681 | -0.24035 | 14638 ft | 363 kts | 26° |
| 2026-05-03 21:05 | 51.59948 | -0.22275 | 14204 ft | 361 kts | 25° |
| 2026-05-03 21:05 | 51.62180 | -0.20551 | 13737 ft | 349 kts | 25° |
| 2026-05-03 21:05 | 51.64329 | -0.18894 | 13336 ft | 336 kts | 25° |
| 2026-05-03 21:06 | 51.66401 | -0.17297 | 12923 ft | 324 kts | 25° |
| 2026-05-03 21:06 | 51.68406 | -0.15751 | 12520 ft | 316 kts | 25° |
| 2026-05-03 21:06 | 51.70390 | -0.14220 | 12134 ft | 315 kts | 25° |
| 2026-05-03 21:06 | 51.72355 | -0.12702 | 11845 ft | 311 kts | 25° |
| 2026-05-03 21:07 | 51.74299 | -0.11198 | 11508 ft | 309 kts | 25° |
| 2026-05-03 21:07 | 51.76239 | -0.09736 | 11175 ft | 307 kts | 24° |
| 2026-05-03 21:07 | 51.78189 | -0.08364 | 10839 ft | 305 kts | 23° |
| 2026-05-03 21:07 | 51.80134 | -0.07021 | 10511 ft | 303 kts | 23° |
| 2026-05-03 21:08 | 51.82065 | -0.05686 | 10196 ft | 301 kts | 22° |
| 2026-05-03 21:08 | 51.83981 | -0.04355 | 9902 ft | 298 kts | 22° |
| 2026-05-03 21:08 | 51.85874 | -0.03034 | 9626 ft | 295 kts | 23° |
| 2026-05-03 21:08 | 51.87755 | -0.01717 | 9359 ft | 293 kts | 23° |
| 2026-05-03 21:09 | 51.89613 | -0.00412 | 9092 ft | 289 kts | 23° |
| 2026-05-03 21:09 | 51.91435 | 0.00870 | 8932 ft | 281 kts | 23° |
| 2026-05-03 21:09 | 51.93186 | 0.02102 | 8903 ft | 268 kts | 23° |
| 2026-05-03 21:09 | 51.94867 | 0.03287 | 8895 ft | 260 kts | 23° |
| 2026-05-03 21:10 | 51.96516 | 0.04451 | 8863 ft | 257 kts | 23° |
| 2026-05-03 21:10 | 51.98147 | 0.05602 | 8607 ft | 256 kts | 23° |
| 2026-05-03 21:10 | 51.99718 | 0.06948 | 8269 ft | 257 kts | 38° |
| 2026-05-03 21:10 | 52.01072 | 0.08832 | 8030 ft | 255 kts | 41° |
| 2026-05-03 21:11 | 52.02413 | 0.10715 | 7776 ft | 254 kts | 41° |
| 2026-05-03 21:11 | 52.03724 | 0.12546 | 7644 ft | 247 kts | 41° |
| 2026-05-03 21:11 | 52.04994 | 0.14332 | 7582 ft | 235 kts | 44° |
| 2026-05-03 21:11 | 52.05844 | 0.16468 | 7462 ft | 222 kts | 76° |
| 2026-05-03 21:12 | 52.05825 | 0.18871 | 7283 ft | 211 kts | 112° |
| 2026-05-03 21:12 | 52.04979 | 0.20723 | 7123 ft | 205 kts | 149° |
| 2026-05-03 21:12 | 52.03645 | 0.21374 | 6968 ft | 203 kts | 184° |
| 2026-05-03 21:12 | 52.02320 | 0.20666 | 6836 ft | 204 kts | 208° |
| 2026-05-03 21:13 | 52.01077 | 0.19502 | 6623 ft | 208 kts | 211° |
| 2026-05-03 21:13 | 51.99831 | 0.18295 | 6403 ft | 207 kts | 211° |
| 2026-05-03 21:13 | 51.98607 | 0.17101 | 6166 ft | 203 kts | 211° |
| 2026-05-03 21:13 | 51.97402 | 0.15920 | 6039 ft | 202 kts | 211° |
| 2026-05-03 21:14 | 51.96190 | 0.14730 | 6010 ft | 204 kts | 211° |
| 2026-05-03 21:14 | 51.95009 | 0.13484 | 5995 ft | 202 kts | 219° |
| 2026-05-03 21:14 | 51.93963 | 0.11976 | 5952 ft | 200 kts | 221° |
| 2026-05-03 21:14 | 51.92929 | 0.10486 | 5683 ft | 199 kts | 221° |
| 2026-05-03 21:15 | 51.91892 | 0.08998 | 5364 ft | 199 kts | 221° |
| 2026-05-03 21:15 | 51.90852 | 0.07509 | 5111 ft | 200 kts | 221° |
| 2026-05-03 21:15 | 51.89801 | 0.06005 | 4872 ft | 201 kts | 221° |
| 2026-05-03 21:15 | 51.88752 | 0.04507 | 4624 ft | 201 kts | 221° |
| 2026-05-03 21:16 | 51.87699 | 0.03029 | 4357 ft | 200 kts | 216° |
| 2026-05-03 21:16 | 51.86421 | 0.02251 | 4078 ft | 199 kts | 182° |
| 2026-05-03 21:16 | 51.85027 | 0.02241 | 3725 ft | 203 kts | 181° |
| 2026-05-03 21:16 | 51.83609 | 0.02219 | 3428 ft | 203 kts | 181° |
| 2026-05-03 21:17 | 51.82203 | 0.02192 | 3172 ft | 201 kts | 181° |
| 2026-05-03 21:17 | 51.81281 | 0.02173 | 2987 ft | 200 kts | 181° |
| 2026-05-03 21:17 | 51.79436 | 0.02136 | 2713 ft | 196 kts | 181° |
| 2026-05-03 21:17 | 51.78096 | 0.02110 | 2592 ft | 196 kts | 181° |
| 2026-05-03 21:18 | 51.76748 | 0.02088 | 2473 ft | 191 kts | 181° |
| 2026-05-03 21:18 | 51.75468 | 0.02477 | 2327 ft | 189 kts | 150° |
| 2026-05-03 21:18 | 51.74670 | 0.04082 | 2186 ft | 190 kts | 102° |
| 2026-05-03 21:18 | 51.74883 | 0.06136 | 2078 ft | 193 kts | 54° |
| 2026-05-03 21:19 | 51.75969 | 0.07291 | 2034 ft | 189 kts | 11° |
| 2026-05-03 21:19 | 51.77228 | 0.07844 | 1998 ft | 187 kts | 24° |
| 2026-05-03 21:19 | 51.78343 | 0.08819 | 1994 ft | 179 kts | 31° |
| 2026-05-03 21:19 | 51.79341 | 0.09965 | 1984 ft | 175 kts | 34° |
| 2026-05-03 21:20 | 51.80300 | 0.11182 | 1999 ft | 176 kts | 39° |
| 2026-05-03 21:20 | 51.81215 | 0.12509 | 2011 ft | 178 kts | 41° |
| 2026-05-03 21:20 | 51.82126 | 0.13882 | 1847 ft | 180 kts | 42° |
| 2026-05-03 21:20 | 51.83026 | 0.15241 | 1625 ft | 173 kts | 42° |
| 2026-05-03 21:21 | 51.83877 | 0.16523 | 1423 ft | 159 kts | 42° |
| 2026-05-03 21:21 | 51.84663 | 0.17707 | 1192 ft | 152 kts | 42° |
| 2026-05-03 21:21 | 51.85426 | 0.18856 | 989 ft | 149 kts | 42° |
| 2026-05-03 21:21 | 51.86188 | 0.20002 | 807 ft | 150 kts | 43° |
| 2026-05-03 21:22 | 51.86958 | 0.21161 | 595 ft | 152 kts | 43° |
| 2026-05-03 21:22 | 51.87723 | 0.22313 | 390 ft | 149 kts | 43° |
| 2026-05-03 21:22 | 51.88430 | 0.23375 | 349 ft | 114 kts | 43° |
| 2026-05-03 21:22 | 51.88747 | 0.23850 | 337 ft | 74 kts | 43° |
| 2026-05-03 21:23 | 51.88994 | 0.24226 | 350 ft | 25 kts | 49° |
| 2026-05-03 21:23 | 51.89092 | 0.24498 | 352 ft | 20 kts | 68° |
| 2026-05-03 21:23 | 51.89127 | 0.24638 | 351 ft | 10 kts | 69° |
| 2026-05-03 21:23 | 51.89154 | 0.24742 | 351 ft | 11 kts | 66° |
| 2026-05-03 21:24 | 51.89171 | 0.24816 | 347 ft | 10 kts | 83° |
| 2026-05-03 21:24 | 51.89153 | 0.24920 | 354 ft | 10 kts | 84° |
| 2026-05-03 21:24 | 51.89193 | 0.25003 | 351 ft | 9 kts | 44° |
| 2026-05-03 21:24 | 51.89231 | 0.25090 | 355 ft | 10 kts | 58° |
| 2026-05-03 21:25 | 51.89277 | 0.25199 | 355 ft | 13 kts | 47° |
| 2026-05-03 21:25 | 51.89353 | 0.25313 | 351 ft | 16 kts | 42° |
| 2026-05-03 21:25 | 51.89421 | 0.25440 | 351 ft | 14 kts | 84° |
| 2026-05-03 21:25 | 51.89371 | 0.25565 | 355 ft | 13 kts | 132° |
| 2026-05-03 21:26 | 51.89309 | 0.25672 | 354 ft | 13 kts | 133° |
| 2026-05-03 21:26 | 51.89249 | 0.25776 | 356 ft | 12 kts | 133° |
| 2026-05-03 21:26 | 51.89192 | 0.25875 | 361 ft | 10 kts | 133° |
| 2026-05-03 21:26 | 51.89147 | 0.25880 | 359 ft | 8 kts | 223° |
| 2026-05-03 21:27 | 51.89122 | 0.25843 | 351 ft | 2 kts | 223° |
| 2026-05-03 21:27 | 51.89118 | 0.25837 | 357 ft | 0 kts | 223° |